createdAt,value
2023-01-07T00:02:08.725Z,8.40
2023-01-07T00:04:36.492Z,8.40
2023-01-07T00:07:04.358Z,8.40
2023-01-07T00:09:32.144Z,8.40
2023-01-07T00:11:59.960Z,8.30
2023-01-07T00:14:27.703Z,8.30
2023-01-07T00:16:56.971Z,8.20
2023-01-07T00:19:24.755Z,8.20
2023-01-07T00:21:52.534Z,8.20
2023-01-07T00:24:20.314Z,8.20
2023-01-07T00:26:48.104Z,8.20
2023-01-07T00:29:16.864Z,8.20
2023-01-07T00:31:44.701Z,8.20
2023-01-07T00:34:13.933Z,8.20
2023-01-07T00:36:43.799Z,8.20
2023-01-07T00:39:14.819Z,8.20
2023-01-07T00:42:05.830Z,8.20
2023-01-07T00:44:34.372Z,8.20
2023-01-07T00:47:02.289Z,8.20
2023-01-07T00:49:31.557Z,8.20
2023-01-07T00:51:59.298Z,8.10
2023-01-07T00:54:27.185Z,8.10
2023-01-07T00:56:54.948Z,8.10
2023-01-07T00:59:22.675Z,8.10
2023-01-07T01:01:50.487Z,8.10
2023-01-07T01:04:18.347Z,8.10
2023-01-07T01:06:47.501Z,8.10
2023-01-07T01:09:15.387Z,8.10
2023-01-07T01:11:43.207Z,8.10
2023-01-07T01:14:12.394Z,8.10
2023-01-07T01:16:40.236Z,8.10
2023-01-07T01:19:08.017Z,8.10
2023-01-07T01:21:35.831Z,8.00
2023-01-07T01:24:05.346Z,8.10
2023-01-07T01:26:33.294Z,8.00
2023-01-07T01:29:01.040Z,8.00
2023-01-07T01:31:28.945Z,7.90
2023-01-07T01:33:57.282Z,8.00
2023-01-07T01:36:25.861Z,7.90
2023-01-07T01:38:53.711Z,7.90
2023-01-07T01:41:23.064Z,7.90
2023-01-07T01:43:51.715Z,8.00
2023-01-07T01:46:27.091Z,8.00
2023-01-07T01:48:59.683Z,8.00
2023-01-07T01:51:34.375Z,8.00
2023-01-07T01:54:06.073Z,8.00
2023-01-07T01:56:38.797Z,8.00
2023-01-07T01:59:11.098Z,7.90
2023-01-07T02:01:39.339Z,7.80
2023-01-07T02:04:12.152Z,7.90
2023-01-07T02:06:45.237Z,7.90
2023-01-07T02:09:13.887Z,7.90
2023-01-07T02:11:52.620Z,7.90
2023-01-07T02:14:43.808Z,7.90
2023-01-07T02:17:20.190Z,7.80
2023-01-07T02:20:18.647Z,7.90
2023-01-07T02:23:11.343Z,7.80
2023-01-07T02:26:09.902Z,7.90
2023-01-07T02:28:59.618Z,7.90
2023-01-07T02:32:02.618Z,7.90
2023-01-07T02:34:34.732Z,7.80
2023-01-07T02:37:11.286Z,7.80
2023-01-07T02:39:48.363Z,7.80
2023-01-07T02:42:26.215Z,7.80
2023-01-07T02:45:02.064Z,7.80
2023-01-07T02:47:37.254Z,7.80
2023-01-07T02:50:07.616Z,7.80
2023-01-07T02:52:36.705Z,7.70
2023-01-07T02:55:09.191Z,7.70
2023-01-07T02:58:07.105Z,7.80
2023-01-07T03:00:51.583Z,7.80
2023-01-07T03:03:36.625Z,7.70
2023-01-07T03:06:15.887Z,7.70
2023-01-07T03:08:51.864Z,7.80
2023-01-07T03:11:20.998Z,7.80
2023-01-07T03:13:50.452Z,7.80
2023-01-07T03:16:23.663Z,7.80
2023-01-07T03:19:00.850Z,7.90
2023-01-07T03:21:30.722Z,7.90
2023-01-07T03:23:59.655Z,7.90
2023-01-07T03:26:33.516Z,8.00
2023-01-07T03:29:03.689Z,7.90
2023-01-07T03:31:32.756Z,7.90
2023-01-07T03:34:05.187Z,8.00
2023-01-07T03:36:38.512Z,7.90
2023-01-07T03:39:10.545Z,7.90
2023-01-07T03:41:56.984Z,7.90
2023-01-07T03:44:24.787Z,7.90
2023-01-07T03:46:53.823Z,7.90
2023-01-07T03:49:22.933Z,7.80
2023-01-07T03:51:52.718Z,7.90
2023-01-07T03:54:20.644Z,7.90
2023-01-07T03:56:48.424Z,7.90
2023-01-07T03:59:16.400Z,7.90
2023-01-07T04:01:44.293Z,7.80
2023-01-07T04:04:12.162Z,7.90
2023-01-07T04:06:41.391Z,7.90
2023-01-07T04:09:09.249Z,7.90
2023-01-07T04:11:37.084Z,7.90
2023-01-07T04:14:05.182Z,7.90
2023-01-07T04:16:33.061Z,7.90
2023-01-07T04:19:00.858Z,7.90
2023-01-07T04:21:28.666Z,7.90
2023-01-07T04:23:57.812Z,7.90
2023-01-07T04:26:25.597Z,7.80
2023-01-07T04:28:53.359Z,7.80
2023-01-07T04:31:21.236Z,7.80
2023-01-07T04:33:49.104Z,7.70
2023-01-07T04:36:16.869Z,7.70
2023-01-07T04:38:44.737Z,7.80
2023-01-07T04:41:13.847Z,7.80
2023-01-07T04:43:41.709Z,7.70
2023-01-07T04:46:09.536Z,7.80
2023-01-07T04:48:37.394Z,7.70
2023-01-07T04:51:05.862Z,7.70
2023-01-07T04:53:33.808Z,7.70
2023-01-07T04:56:01.628Z,7.60
2023-01-07T04:58:30.912Z,7.50
2023-01-07T05:01:03.473Z,7.50
2023-01-07T05:03:31.554Z,7.30
2023-01-07T05:05:59.376Z,7.30
2023-01-07T05:08:27.199Z,7.30
2023-01-07T05:10:55.467Z,7.30
2023-01-07T05:13:24.613Z,7.30
2023-01-07T05:15:53.731Z,7.20
2023-01-07T05:18:21.541Z,7.20
2023-01-07T05:20:49.308Z,7.10
2023-01-07T05:23:17.083Z,7.00
2023-01-07T05:25:44.906Z,7.10
2023-01-07T05:28:12.905Z,7.00
2023-01-07T05:30:40.720Z,7.00
2023-01-07T05:33:09.951Z,6.90
2023-01-07T05:35:37.761Z,6.70
2023-01-07T05:38:05.793Z,6.70
2023-01-07T05:40:33.691Z,6.70
2023-01-07T05:43:01.583Z,6.60
2023-01-07T05:45:29.369Z,6.40
2023-01-07T05:47:57.136Z,6.40
2023-01-07T05:50:26.289Z,6.30
2023-01-07T05:52:54.130Z,6.30
2023-01-07T05:55:21.896Z,6.30
2023-01-07T05:57:49.756Z,6.20
2023-01-07T06:00:18.505Z,6.20
2023-01-07T06:02:46.518Z,6.10
2023-01-07T06:05:14.464Z,6.00
2023-01-07T06:07:43.583Z,5.90
2023-01-07T06:10:11.802Z,5.80
2023-01-07T06:12:39.618Z,5.60
2023-01-07T06:15:08.660Z,5.50
2023-01-07T06:17:36.776Z,5.50
2023-01-07T06:20:05.129Z,5.50
2023-01-07T06:22:32.987Z,5.50
2023-01-07T06:25:02.194Z,5.40
2023-01-07T06:27:29.955Z,5.30
2023-01-07T06:29:57.721Z,5.30
2023-01-07T06:32:25.611Z,5.10
2023-01-07T06:34:53.487Z,5.00
2023-01-07T06:37:21.387Z,5.00
2023-01-07T06:39:49.288Z,4.90
2023-01-07T06:42:18.444Z,4.90
2023-01-07T06:44:46.198Z,4.90
2023-01-07T06:47:13.983Z,4.80
2023-01-07T06:49:41.825Z,4.70
2023-01-07T06:52:09.695Z,4.70
2023-01-07T06:54:37.509Z,4.80
2023-01-07T06:57:05.307Z,4.70
2023-01-07T06:59:34.435Z,4.70
2023-01-07T07:02:02.411Z,4.60
2023-01-07T07:04:30.243Z,4.60
2023-01-07T07:06:58.286Z,4.50
2023-01-07T07:09:26.244Z,4.60
2023-01-07T07:11:54.027Z,4.50
2023-01-07T07:14:21.786Z,4.40
2023-01-07T07:16:51.401Z,4.40
2023-01-07T07:19:19.191Z,4.40
2023-01-07T07:21:48.312Z,4.30
2023-01-07T07:24:16.236Z,4.30
2023-01-07T07:26:43.995Z,4.20
2023-01-07T07:29:11.964Z,4.30
2023-01-07T07:31:40.840Z,4.30
2023-01-07T07:34:10.767Z,4.40
2023-01-07T07:36:38.815Z,4.40
2023-01-07T07:39:10.453Z,4.40
2023-01-07T07:41:38.455Z,4.50
2023-01-07T07:44:06.454Z,4.50
2023-01-07T07:46:34.456Z,4.50
2023-01-07T07:49:07.224Z,4.60
2023-01-07T07:51:36.424Z,4.70
2023-01-07T07:54:04.455Z,4.70
2023-01-07T07:56:33.035Z,4.80
2023-01-07T07:59:01.108Z,4.90
2023-01-07T08:01:28.965Z,5.00
2023-01-07T08:03:56.796Z,4.90
2023-01-07T08:06:24.632Z,4.90
2023-01-07T08:08:53.736Z,4.90
2023-01-07T08:11:22.578Z,4.90
2023-01-07T08:13:50.434Z,5.00
2023-01-07T08:16:18.405Z,5.00
2023-01-07T08:18:46.253Z,5.00
2023-01-07T08:21:14.065Z,5.00
2023-01-07T08:23:41.827Z,5.10
2023-01-07T08:26:10.928Z,5.10
2023-01-07T08:28:38.973Z,5.20
2023-01-07T08:31:08.461Z,5.20
2023-01-07T08:33:39.983Z,5.30
2023-01-07T08:36:22.115Z,5.40
2023-01-07T08:38:52.318Z,5.40
2023-01-07T08:41:22.222Z,5.40
2023-01-07T08:43:50.536Z,5.40
2023-01-07T08:46:20.182Z,5.50
2023-01-07T08:48:53.353Z,5.60
2023-01-07T08:51:21.813Z,5.60
2023-01-07T08:53:49.809Z,5.70
2023-01-07T08:56:17.570Z,5.70
2023-01-07T08:58:46.858Z,5.80
2023-01-07T09:01:15.224Z,5.80
2023-01-07T09:03:43.494Z,5.90
2023-01-07T09:06:11.365Z,5.90
2023-01-07T09:08:40.347Z,6.00
2023-01-07T09:11:08.164Z,6.20
2023-01-07T09:13:36.249Z,6.20
2023-01-07T09:16:05.974Z,6.20
2023-01-07T09:18:33.891Z,6.30
2023-01-07T09:21:01.891Z,6.30
2023-01-07T09:23:29.666Z,6.40
2023-01-07T09:25:57.439Z,6.40
2023-01-07T09:28:25.270Z,6.30
2023-01-07T09:30:54.316Z,6.40
2023-01-07T09:33:24.593Z,6.50
2023-01-07T09:35:52.709Z,6.60
2023-01-07T09:38:20.504Z,6.70
2023-01-07T09:40:49.291Z,6.80
2023-01-07T09:46:14.886Z,7.00
2023-01-07T09:48:47.978Z,7.00
2023-01-07T09:51:20.833Z,7.10
2023-01-07T09:53:51.287Z,7.10
2023-01-07T09:56:23.998Z,7.20
2023-01-07T09:58:52.724Z,7.30
2023-01-07T10:01:28.011Z,7.30
2023-01-07T10:04:07.773Z,7.40
2023-01-07T10:06:45.964Z,7.50
2023-01-07T10:09:26.176Z,7.50
2023-01-07T10:12:02.982Z,7.60
2023-01-07T10:14:52.197Z,7.50
2023-01-07T10:17:30.973Z,7.40
2023-01-07T10:20:07.895Z,7.60
2023-01-07T10:22:38.132Z,7.70
2023-01-07T10:25:14.785Z,7.80
2023-01-07T10:27:44.145Z,7.90
2023-01-07T10:30:18.443Z,8.00
2023-01-07T10:32:49.305Z,8.10
2023-01-07T10:35:21.248Z,8.20
2023-01-07T10:37:48.998Z,8.20
2023-01-07T10:40:34.996Z,8.30
2023-01-07T10:43:10.237Z,8.40
2023-01-07T10:45:59.454Z,8.60
2023-01-07T10:49:02.600Z,8.60
2023-01-07T10:51:51.735Z,8.80
2023-01-07T10:54:41.453Z,8.80
2023-01-07T10:57:16.756Z,8.80
2023-01-07T10:59:49.810Z,8.90
2023-01-07T11:02:20.135Z,8.90
2023-01-07T11:04:48.333Z,8.90
2023-01-07T11:07:26.197Z,8.90
2023-01-07T11:09:55.475Z,9.00
2023-01-07T11:12:28.818Z,9.00
2023-01-07T11:14:59.097Z,9.00
2023-01-07T11:17:32.734Z,9.10
2023-01-07T11:20:00.589Z,9.10
2023-01-07T11:22:34.616Z,9.10
2023-01-07T11:25:04.064Z,9.10
2023-01-07T11:27:34.978Z,9.00
2023-01-07T11:30:05.129Z,9.00
2023-01-07T11:32:35.571Z,9.10
2023-01-07T11:35:06.595Z,9.00
2023-01-07T11:37:39.136Z,9.10
2023-01-07T11:40:20.899Z,9.10
2023-01-07T11:42:51.760Z,9.20
2023-01-07T11:45:22.334Z,9.20
2023-01-07T11:47:59.045Z,9.30
2023-01-07T11:50:35.666Z,9.40
2023-01-07T11:53:23.353Z,9.40
2023-01-07T11:55:59.853Z,9.50
2023-01-07T11:58:31.106Z,9.50
2023-01-07T12:01:21.179Z,9.50
2023-01-07T12:04:12.703Z,9.60
2023-01-07T12:06:45.632Z,9.60
2023-01-07T12:09:24.505Z,9.70
2023-01-07T12:11:54.376Z,9.80
2023-01-07T12:14:26.931Z,9.80
2023-01-07T12:16:56.345Z,9.80
2023-01-07T12:19:50.768Z,9.80
2023-01-07T12:22:31.716Z,9.70
2023-01-07T12:25:27.647Z,9.80
2023-01-07T12:28:07.727Z,9.90
2023-01-07T12:31:02.596Z,9.80
2023-01-07T12:33:43.156Z,9.80
2023-01-07T12:36:14.939Z,9.80
2023-01-07T12:38:47.045Z,9.80
2023-01-07T12:41:20.701Z,9.90
2023-01-07T12:44:02.361Z,9.90
2023-01-07T12:46:36.323Z,10.00
2023-01-07T12:49:08.798Z,9.90
2023-01-07T12:51:43.435Z,10.10
2023-01-07T12:54:18.091Z,10.10
2023-01-07T12:56:52.915Z,10.10
2023-01-07T12:59:46.394Z,10.10
2023-01-07T13:02:20.637Z,10.20
2023-01-07T13:04:58.838Z,10.20
2023-01-07T13:07:32.707Z,10.20
2023-01-07T13:10:03.650Z,10.30
2023-01-07T13:12:46.530Z,10.20
2023-01-07T13:15:22.800Z,10.20
2023-01-07T13:17:53.687Z,10.20
2023-01-07T13:20:38.284Z,10.20
2023-01-07T13:23:08.687Z,10.20
2023-01-07T13:25:48.378Z,10.10
2023-01-07T13:28:46.198Z,10.10
2023-01-07T13:31:37.606Z,10.10
2023-01-07T13:34:19.246Z,10.10
2023-01-07T13:36:58.127Z,10.00
2023-01-07T13:39:41.006Z,10.10
2023-01-07T13:42:29.752Z,10.00
2023-01-07T13:45:05.308Z,9.90
2023-01-07T13:47:43.526Z,9.90
2023-01-07T13:50:20.805Z,9.80
2023-01-07T13:52:58.657Z,9.90
2023-01-07T13:55:33.364Z,9.90
2023-01-07T13:58:02.654Z,9.80
2023-01-07T14:00:43.885Z,9.80
2023-01-07T14:03:40.186Z,9.80
2023-01-07T14:06:38.721Z,9.70
2023-01-07T14:09:35.894Z,9.60
2023-01-07T14:12:35.224Z,9.60
2023-01-07T14:15:32.415Z,9.60
2023-01-07T14:18:18.769Z,9.70
2023-01-07T14:20:49.494Z,9.70
2023-01-07T14:23:28.456Z,9.70
2023-01-07T14:26:12.797Z,9.70
2023-01-07T14:29:15.888Z,9.60
2023-01-07T14:31:43.843Z,9.50
2023-01-07T14:34:21.560Z,9.50
2023-01-07T14:37:11.514Z,9.50
2023-01-07T14:39:40.822Z,9.50
2023-01-07T14:42:48.987Z,9.50
2023-01-07T14:45:56.168Z,9.40
2023-01-07T14:48:33.572Z,9.30
2023-01-07T14:51:36.187Z,9.30
2023-01-07T14:54:42.570Z,9.20
2023-01-07T14:57:22.288Z,9.10
2023-01-07T15:00:23.499Z,9.00
2023-01-07T15:03:17.195Z,8.90
2023-01-07T15:06:00.974Z,8.70
2023-01-07T15:09:00.717Z,8.60
2023-01-07T15:11:46.660Z,8.50
2023-01-07T15:14:43.792Z,8.40
2023-01-07T15:17:15.064Z,8.20
2023-01-07T15:19:44.022Z,8.10
2023-01-07T15:22:43.012Z,8.00
2023-01-07T15:25:22.729Z,7.80
2023-01-07T15:27:59.565Z,7.70
2023-01-07T15:30:37.048Z,7.60
2023-01-07T15:33:20.199Z,7.60
2023-01-07T15:35:48.150Z,7.50
2023-01-07T15:38:27.459Z,7.30
2023-01-07T15:40:58.884Z,7.30
2023-01-07T15:43:30.360Z,7.20
2023-01-07T15:46:03.967Z,7.00
2023-01-07T15:48:32.010Z,7.00
2023-01-07T15:51:00.553Z,7.00
2023-01-07T15:53:29.691Z,6.90
2023-01-07T15:56:02.699Z,6.80
2023-01-07T15:58:36.175Z,6.70
2023-01-07T16:01:05.310Z,6.70
2023-01-07T16:03:36.771Z,6.70
2023-01-07T16:06:04.908Z,6.60
2023-01-07T16:08:34.614Z,6.50
2023-01-07T16:11:05.857Z,6.50
2023-01-07T16:13:35.040Z,6.40
2023-01-07T16:16:06.506Z,6.30
2023-01-07T16:18:34.425Z,6.10
2023-01-07T16:21:06.009Z,6.10
2023-01-07T16:23:35.175Z,6.00
2023-01-07T16:26:07.592Z,5.90
2023-01-07T16:28:40.770Z,5.80
2023-01-07T16:31:13.302Z,5.90
2023-01-07T16:33:43.068Z,5.90
2023-01-07T16:36:15.799Z,5.90
2023-01-07T16:38:44.755Z,5.80
2023-01-07T16:41:20.815Z,5.80
2023-01-07T16:43:49.236Z,5.80
2023-01-07T16:46:24.336Z,5.70
2023-01-07T16:49:21.313Z,5.80
2023-01-07T16:51:51.078Z,5.70
2023-01-07T16:54:33.257Z,5.70
2023-01-07T16:57:04.502Z,5.70
2023-01-07T16:59:35.437Z,5.60
2023-01-07T17:02:13.688Z,5.40
2023-01-07T17:04:41.603Z,5.30
2023-01-07T17:07:22.515Z,5.20
2023-01-07T17:09:54.465Z,5.20
2023-01-07T17:12:30.769Z,5.20
2023-01-07T17:14:58.719Z,5.10
2023-01-07T17:17:30.629Z,5.10
2023-01-07T17:20:15.520Z,4.90
2023-01-07T17:22:45.144Z,4.80
2023-01-07T17:25:14.271Z,4.80
2023-01-07T17:27:46.909Z,4.70
2023-01-07T17:30:19.853Z,4.70
2023-01-07T17:32:49.868Z,4.70
2023-01-07T17:35:19.865Z,4.60
2023-01-07T17:37:47.852Z,4.60
2023-01-07T17:40:16.252Z,4.70
2023-01-07T17:43:04.704Z,4.70
2023-01-07T17:45:32.688Z,4.80
2023-01-07T17:48:01.592Z,4.70
2023-01-07T17:50:36.432Z,4.60
2023-01-07T17:53:05.033Z,4.40
2023-01-07T17:55:36.341Z,4.50
2023-01-07T17:58:05.734Z,4.50
2023-01-07T18:00:36.421Z,4.50
2023-01-07T18:03:04.468Z,4.30
2023-01-07T18:05:32.302Z,4.40
2023-01-07T18:08:00.290Z,4.30
2023-01-07T18:10:51.826Z,4.30
2023-01-07T18:13:19.977Z,4.20
2023-01-07T18:15:47.949Z,4.30
2023-01-07T18:18:15.806Z,4.20
2023-01-07T18:20:43.724Z,4.30
2023-01-07T18:23:12.760Z,4.30
2023-01-07T18:25:43.866Z,4.20
2023-01-07T18:28:12.042Z,4.10
2023-01-07T18:30:41.625Z,3.90
2023-01-07T18:33:11.894Z,4.00
2023-01-07T18:35:41.454Z,3.90
2023-01-07T18:38:13.686Z,3.90
2023-01-07T18:40:41.941Z,3.80
2023-01-07T18:43:13.130Z,3.90
2023-01-07T18:45:43.088Z,3.80
2023-01-07T18:48:12.771Z,3.80
2023-01-07T18:50:42.857Z,3.90
2023-01-07T18:53:10.799Z,3.80
2023-01-07T18:55:38.868Z,3.80
2023-01-07T18:58:07.776Z,3.80
2023-01-07T19:00:36.011Z,3.70
2023-01-07T19:03:05.386Z,3.70
2023-01-07T19:05:33.482Z,3.70
2023-01-07T19:08:01.290Z,3.70
2023-01-07T19:10:29.396Z,3.70
2023-01-07T19:12:57.560Z,3.60
2023-01-07T19:15:25.408Z,3.60
2023-01-07T19:17:53.256Z,3.50
2023-01-07T19:20:22.516Z,3.50
2023-01-07T19:22:50.288Z,3.50
2023-01-07T19:25:18.249Z,3.50
2023-01-07T19:27:46.014Z,3.50
2023-01-07T19:30:14.258Z,3.50
2023-01-07T19:32:42.012Z,3.60
2023-01-07T19:35:10.417Z,3.60
2023-01-07T19:37:39.530Z,3.50
2023-01-07T19:40:08.300Z,3.60
2023-01-07T19:42:36.235Z,3.60
2023-01-07T19:45:04.260Z,3.60
2023-01-07T19:47:32.278Z,3.50
2023-01-07T19:50:00.187Z,3.50
2023-01-07T19:52:29.142Z,3.50
2023-01-07T19:54:58.315Z,3.50
2023-01-07T19:57:26.220Z,3.40
2023-01-07T19:59:54.072Z,3.30
2023-01-07T20:02:22.572Z,3.30
2023-01-07T20:04:50.569Z,3.20
2023-01-07T20:07:18.328Z,3.20
2023-01-07T20:09:46.114Z,3.30
2023-01-07T20:12:15.523Z,3.40
2023-01-07T20:14:44.933Z,3.30
2023-01-07T20:17:12.836Z,3.30
2023-01-07T20:19:41.006Z,3.20
2023-01-07T20:22:10.852Z,3.30
2023-01-07T20:24:38.831Z,3.30
2023-01-07T20:27:07.011Z,3.30
2023-01-07T20:29:36.948Z,3.30
2023-01-07T20:32:07.309Z,3.40
2023-01-07T20:34:35.250Z,3.30
2023-01-07T20:37:04.243Z,3.30
2023-01-07T20:39:32.055Z,3.20
2023-01-07T20:41:59.823Z,3.10
2023-01-07T20:44:27.683Z,3.10
2023-01-07T20:46:56.844Z,3.20
2023-01-07T20:49:24.622Z,3.20
2023-01-07T20:51:52.390Z,3.10
2023-01-07T20:54:20.286Z,3.00
2023-01-07T20:56:48.094Z,2.90
2023-01-07T20:59:17.162Z,2.90
2023-01-07T21:01:45.089Z,2.90
2023-01-07T21:04:14.444Z,3.10
2023-01-07T21:06:42.251Z,3.10
2023-01-07T21:09:11.497Z,3.20
2023-01-07T21:11:41.114Z,3.20
2023-01-07T21:14:09.017Z,3.20
2023-01-07T21:16:37.321Z,3.10
2023-01-07T21:19:05.279Z,3.00
2023-01-07T21:21:34.425Z,2.90
2023-01-07T21:24:02.343Z,2.90
2023-01-07T21:26:30.232Z,2.90
2023-01-07T21:28:58.874Z,2.90
2023-01-07T21:31:27.545Z,2.90
2023-01-07T21:33:57.209Z,2.80
2023-01-07T21:36:26.345Z,2.80
2023-01-07T21:38:57.754Z,2.80
2023-01-07T21:41:26.739Z,2.80
2023-01-07T21:43:55.327Z,2.90
2023-01-07T21:46:23.453Z,3.00
2023-01-07T21:48:52.138Z,3.00
2023-01-07T21:51:22.101Z,2.90
2023-01-07T21:53:51.948Z,2.90
2023-01-07T21:56:21.340Z,2.90
2023-01-07T21:58:49.958Z,3.00
2023-01-07T22:01:18.889Z,3.00
2023-01-07T22:03:48.417Z,3.10
2023-01-07T22:06:20.111Z,3.10
2023-01-07T22:08:48.363Z,3.00
2023-01-07T22:11:18.035Z,3.00
2023-01-07T22:13:50.653Z,2.90
2023-01-07T22:16:18.752Z,3.00
2023-01-07T22:18:46.789Z,3.00
2023-01-07T22:21:14.983Z,2.90
2023-01-07T22:23:44.798Z,2.90
2023-01-07T22:26:13.356Z,2.80
2023-01-07T22:28:42.170Z,2.60
2023-01-07T22:31:16.756Z,2.60
2023-01-07T22:33:44.553Z,2.70
2023-01-07T22:36:15.171Z,2.70
2023-01-07T22:38:43.125Z,2.70
2023-01-07T22:41:12.424Z,2.60
2023-01-07T22:43:40.455Z,2.60
2023-01-07T22:46:12.775Z,2.50
2023-01-07T22:48:40.996Z,2.40
2023-01-07T22:51:12.865Z,2.50
2023-01-07T22:53:40.778Z,2.50
2023-01-07T22:56:09.023Z,2.40
2023-01-07T22:58:36.797Z,2.50
2023-01-07T23:01:13.586Z,2.40
2023-01-07T23:03:42.589Z,2.40
2023-01-07T23:06:12.742Z,2.40
2023-01-07T23:08:41.435Z,2.10
2023-01-07T23:11:09.542Z,2.10
2023-01-07T23:13:38.320Z,2.00
2023-01-07T23:16:07.434Z,2.00
2023-01-07T23:18:36.641Z,2.10
2023-01-07T23:21:05.707Z,2.10
2023-01-07T23:23:33.538Z,2.10
2023-01-07T23:26:01.384Z,2.00
2023-01-07T23:28:29.141Z,2.00
2023-01-07T23:31:01.514Z,1.90
2023-01-07T23:33:29.346Z,2.00
2023-01-07T23:36:03.792Z,2.00
2023-01-07T23:38:31.892Z,1.80
2023-01-07T23:41:03.076Z,1.80
2023-01-07T23:43:31.424Z,1.90
2023-01-07T23:46:00.011Z,1.90
2023-01-07T23:48:28.732Z,1.80
2023-01-07T23:50:57.575Z,1.80
2023-01-07T23:53:26.687Z,2.00
2023-01-07T23:55:56.014Z,1.90
2023-01-07T23:58:25.420Z,1.80
